Time;durP1;ratioP1;P1;durP2;ratioP2;P2;SDS_P1;SDS_P2;PMS_P1;PMS_P2;Temp;Humidity;BMP_temperature;BMP_pressure;BME280_temperature;BME280_humidity;BME280_pressure;Samples;Min_cycle;Max_cycle;Signal;HPM_P1;HPM_P2
2021/10/20 00:00:46;;;;;;;3.13;2.03;;;;;;;;;;5013705;28;20396;-55
2021/10/20 00:03:12;;;;;;;3.30;1.88;;;;;;;;;;5013752;28;20041;-54
2021/10/20 00:05:38;;;;;;;6.82;2.15;;;;;;;;;;5013082;28;20026;-55
2021/10/20 00:08:07;;;;;;;4.00;2.20;;;;;;;;;;5013194;28;20112;-54
2021/10/20 00:10:33;;;;;;;3.92;2.40;;;;;;;;;;5014578;28;20026;-53
2021/10/20 00:12:59;;;;;;;3.90;2.30;;;;;;;;;;5013043;28;20030;-55
2021/10/20 00:15:25;;;;;;;4.40;2.53;;;;;;;;;;5013333;28;20699;-54
2021/10/20 00:17:51;;;;;;;3.47;2.00;;;;;;;;;;5013051;28;20064;-56
2021/10/20 00:20:21;;;;;;;3.92;2.25;;;;;;;;;;5012783;28;20022;-51
2021/10/20 00:22:47;;;;;;;3.83;2.63;;;;;;;;;;5013324;28;20025;-52
2021/10/20 00:25:14;;;;;;;4.72;2.78;;;;;;;;;;5009790;28;20033;-52
2021/10/20 00:27:41;;;;;;;4.13;2.60;;;;;;;;;;5011853;28;20034;-51
2021/10/20 00:30:07;;;;;;;4.30;2.83;;;;;;;;;;5013281;28;20065;-50
2021/10/20 00:32:33;;;;;;;3.95;2.38;;;;;;;;;;5012130;28;20081;-51
2021/10/20 00:34:59;;;;;;;6.00;2.85;;;;;;;;;;5012876;28;20509;-51
2021/10/20 00:37:25;;;;;;;4.85;3.00;;;;;;;;;;5013015;28;20236;-52
2021/10/20 00:39:51;;;;;;;4.80;3.03;;;;;;;;;;5012625;28;20026;-53
2021/10/20 00:42:21;;;;;;;6.22;2.83;;;;;;;;;;5012847;28;20056;-50
2021/10/20 00:44:48;;;;;;;6.07;3.13;;;;;;;;;;5013021;28;20033;-51
2021/10/20 00:47:14;;;;;;;5.25;2.88;;;;;;;;;;5013154;28;20097;-57
2021/10/20 00:49:40;;;;;;;4.53;2.80;;;;;;;;;;5012748;28;20026;-56
2021/10/20 00:52:06;;;;;;;6.13;3.40;;;;;;;;;;5012618;28;20782;-54
2021/10/20 00:54:33;;;;;;;5.22;3.53;;;;;;;;;;5012619;28;20100;-51
2021/10/20 00:56:59;;;;;;;5.55;3.22;;;;;;;;;;5012822;28;20026;-52
2021/10/20 00:59:25;;;;;;;6.43;3.45;;;;;;;;;;5012693;28;20026;-56
2021/10/20 01:01:51;;;;;;;5.75;3.30;;;;;;;;;;5012559;28;20455;-57
2021/10/20 01:04:17;;;;;;;6.25;3.17;;;;;;;;;;5012368;28;20077;-56
2021/10/20 01:06:43;;;;;;;6.22;3.80;;;;;;;;;;5012571;28;20458;-57
2021/10/20 01:09:09;;;;;;;6.78;3.50;;;;;;;;;;5011987;28;20441;-55
2021/10/20 01:11:35;;;;;;;6.70;3.63;;;;;;;;;;5012075;28;20026;-57
2021/10/20 01:14:01;;;;;;;8.57;4.05;;;;;;;;;;5012661;28;20034;-56
2021/10/20 01:16:27;;;;;;;7.82;3.47;;;;;;;;;;5012476;28;20125;-56
2021/10/20 01:18:53;;;;;;;7.35;4.25;;;;;;;;;;5011880;28;20037;-53
2021/10/20 01:21:20;;;;;;;6.15;3.40;;;;;;;;;;5012377;28;20104;-56
2021/10/20 01:23:47;;;;;;;6.43;3.80;;;;;;;;;;5012073;28;20113;-54
2021/10/20 01:26:14;;;;;;;7.70;4.43;;;;;;;;;;5012374;28;20025;-55
2021/10/20 01:28:40;;;;;;;6.50;3.72;;;;;;;;;;5011823;28;20563;-53
2021/10/20 01:31:06;;;;;;;5.32;3.90;;;;;;;;;;5012012;28;20595;-55
2021/10/20 01:33:32;;;;;;;7.72;4.30;;;;;;;;;;5011887;28;20056;-55
2021/10/20 01:35:58;;;;;;;7.43;4.03;;;;;;;;;;5014451;28;20554;-52
2021/10/20 01:38:24;;;;;;;9.27;4.70;;;;;;;;;;5015251;28;20026;-54
2021/10/20 01:40:50;;;;;;;7.63;4.72;;;;;;;;;;5007584;28;20482;-52
2021/10/20 01:43:16;;;;;;;7.45;4.40;;;;;;;;;;5011844;28;20172;-52
2021/10/20 01:45:42;;;;;;;8.80;4.75;;;;;;;;;;5015818;28;20030;-55
2021/10/20 01:48:08;;;;;;;7.95;4.82;;;;;;;;;;5016167;28;20026;-52
2021/10/20 01:50:34;;;;;;;8.63;4.47;;;;;;;;;;5015964;28;20084;-51
2021/10/20 01:53:00;;;;;;;14.23;5.65;;;;;;;;;;5014411;28;20112;-51
2021/10/20 01:55:26;;;;;;;10.20;5.35;;;;;;;;;;5016227;28;20034;-56
2021/10/20 01:57:52;;;;;;;9.05;4.93;;;;;;;;;;5014669;28;20458;-57
2021/10/20 02:00:18;;;;;;;11.82;5.25;;;;;;;;;;5015901;28;20040;-55
2021/10/20 02:02:45;;;;;;;9.80;5.47;;;;;;;;;;5015715;28;20100;-55
2021/10/20 02:05:12;;;;;;;10.05;5.35;;;;;;;;;;5014730;28;20034;-56
2021/10/20 02:07:38;;;;;;;9.43;5.35;;;;;;;;;;5014612;28;20108;-56
2021/10/20 02:10:15;;;;;;;8.45;5.00;;;;;;;;;;5015897;28;20469;-54
2021/10/20 02:12:41;;;;;;;8.40;5.07;;;;;;;;;;5015226;28;20108;-56
2021/10/20 02:15:08;;;;;;;8.60;5.65;;;;;;;;;;5014505;28;20041;-52
2021/10/20 02:17:34;;;;;;;8.27;5.32;;;;;;;;;;5013568;28;20121;-53
2021/10/20 02:20:00;;;;;;;10.50;5.43;;;;;;;;;;5013570;28;20069;-56
2021/10/20 02:22:26;;;;;;;9.93;5.13;;;;;;;;;;5015668;28;20018;-52
2021/10/20 02:24:52;;;;;;;8.77;4.70;;;;;;;;;;5015578;28;20045;-53
2021/10/20 02:27:18;;;;;;;10.93;4.50;;;;;;;;;;5009519;28;20030;-53
2021/10/20 02:29:44;;;;;;;7.13;4.57;;;;;;;;;;5013594;28;20021;-57
2021/10/20 02:32:10;;;;;;;8.18;5.10;;;;;;;;;;5014843;28;20133;-52
2021/10/20 02:34:36;;;;;;;9.13;4.90;;;;;;;;;;5015029;28;20123;-56
2021/10/20 02:37:02;;;;;;;8.18;5.20;;;;;;;;;;5013916;28;20034;-57
2021/10/20 02:39:28;;;;;;;8.77;4.95;;;;;;;;;;5014536;28;20030;-56
2021/10/20 02:41:54;;;;;;;13.32;5.43;;;;;;;;;;5013341;28;20466;-54
2021/10/20 02:44:20;;;;;;;9.82;4.95;;;;;;;;;;5017246;28;20092;-53
2021/10/20 02:46:46;;;;;;;7.93;5.10;;;;;;;;;;5015032;28;20033;-53
2021/10/20 02:49:12;;;;;;;8.23;4.50;;;;;;;;;;5014966;28;20034;-51
2021/10/20 02:51:38;;;;;;;7.95;4.45;;;;;;;;;;5014658;28;20041;-51
2021/10/20 02:54:04;;;;;;;8.60;5.13;;;;;;;;;;5015110;28;20489;-51
2021/10/20 02:56:30;;;;;;;9.02;5.32;;;;;;;;;;5014360;28;20048;-51
2021/10/20 02:58:56;;;;;;;9.77;4.55;;;;;;;;;;5014189;28;20463;-51
2021/10/20 03:01:22;;;;;;;7.72;4.70;;;;;;;;;;5014626;28;20022;-56
2021/10/20 03:03:48;;;;;;;8.05;4.88;;;;;;;;;;5014466;28;20037;-57
2021/10/20 03:06:14;;;;;;;6.60;4.40;;;;;;;;;;5014847;28;20045;-56
2021/10/20 03:08:40;;;;;;;8.77;4.70;;;;;;;;;;5014377;28;20036;-55
2021/10/20 03:11:06;;;;;;;9.77;4.22;;;;;;;;;;5014434;28;20109;-57
2021/10/20 03:13:32;;;;;;;7.90;4.85;;;;;;;;;;5014343;28;20101;-55
2021/10/20 03:15:58;;;;;;;8.70;4.97;;;;;;;;;;5014334;28;20040;-54
2021/10/20 03:18:24;;;;;;;9.18;5.07;;;;;;;;;;5014184;28;20447;-53
2021/10/20 03:20:50;;;;;;;8.45;4.70;;;;;;;;;;5014481;28;20358;-55
2021/10/20 03:23:16;;;;;;;8.48;4.82;;;;;;;;;;5014350;28;20021;-55
2021/10/20 03:25:42;;;;;;;9.48;5.22;;;;;;;;;;5014431;28;20471;-54
2021/10/20 03:28:08;;;;;;;8.80;4.88;;;;;;;;;;5013965;28;20682;-51
2021/10/20 03:30:34;;;;;;;8.82;5.32;;;;;;;;;;5013977;28;20026;-54
2021/10/20 03:33:00;;;;;;;9.88;5.50;;;;;;;;;;5013808;28;20580;-51
2021/10/20 03:35:26;;;;;;;8.43;4.78;;;;;;;;;;5013835;28;20034;-52
2021/10/20 03:37:52;;;;;;;7.78;4.80;;;;;;;;;;5015948;28;20030;-56
2021/10/20 03:40:18;;;;;;;8.30;4.60;;;;;;;;;;5017037;28;20382;-56
2021/10/20 03:42:44;;;;;;;7.82;5.20;;;;;;;;;;5013988;28;20042;-57
2021/10/20 03:45:11;;;;;;;7.53;4.70;;;;;;;;;;5013782;28;20029;-54
2021/10/20 03:47:37;;;;;;;9.88;4.93;;;;;;;;;;5012583;28;20053;-54
2021/10/20 03:50:04;;;;;;;8.30;4.45;;;;;;;;;;5013762;28;20049;-51
2021/10/20 03:52:29;;;;;;;8.27;4.68;;;;;;;;;;5011765;28;20113;-56
2021/10/20 03:54:55;;;;;;;10.68;5.10;;;;;;;;;;5010779;28;20158;-52
2021/10/20 03:57:21;;;;;;;6.30;3.97;;;;;;;;;;5010972;28;20041;-54
2021/10/20 03:59:47;;;;;;;5.97;3.80;;;;;;;;;;5013088;28;20029;-56
2021/10/20 04:02:14;;;;;;;7.82;4.25;;;;;;;;;;5010492;28;20399;-56
2021/10/20 04:04:40;;;;;;;7.57;4.78;;;;;;;;;;5009506;28;20037;-55
2021/10/20 04:07:06;;;;;;;8.27;4.53;;;;;;;;;;5007508;28;20022;-54
2021/10/20 04:09:32;;;;;;;7.25;5.00;;;;;;;;;;5009116;28;20060;-55
2021/10/20 04:11:58;;;;;;;8.07;4.47;;;;;;;;;;5010347;28;20026;-54
2021/10/20 04:14:25;;;;;;;6.72;4.50;;;;;;;;;;5011345;28;20176;-56
2021/10/20 04:16:51;;;;;;;8.00;4.03;;;;;;;;;;5008558;28;20417;-56
2021/10/20 04:19:17;;;;;;;6.40;4.05;;;;;;;;;;5006259;28;20030;-56
2021/10/20 04:21:43;;;;;;;6.05;4.05;;;;;;;;;;5009357;28;20083;-54
2021/10/20 04:24:09;;;;;;;7.35;4.18;;;;;;;;;;5013291;28;20022;-51
2021/10/20 04:26:35;;;;;;;7.05;4.32;;;;;;;;;;5012625;28;20021;-55
2021/10/20 04:29:01;;;;;;;6.28;4.18;;;;;;;;;;5012667;28;20084;-52
2021/10/20 04:31:27;;;;;;;5.78;3.53;;;;;;;;;;5013017;28;20444;-55
2021/10/20 04:33:53;;;;;;;5.38;3.80;;;;;;;;;;5012897;28;20030;-51
2021/10/20 04:36:19;;;;;;;6.15;3.75;;;;;;;;;;5012158;28;20030;-52
2021/10/20 04:38:45;;;;;;;7.53;4.30;;;;;;;;;;5012826;28;20080;-51
2021/10/20 04:41:11;;;;;;;6.53;3.85;;;;;;;;;;5009142;28;20037;-54
2021/10/20 04:43:37;;;;;;;7.18;3.85;;;;;;;;;;5008056;28;20145;-51
2021/10/20 04:46:03;;;;;;;4.90;2.92;;;;;;;;;;5007674;28;20053;-53
2021/10/20 04:48:29;;;;;;;7.82;3.67;;;;;;;;;;5012278;28;20592;-57
2021/10/20 04:50:55;;;;;;;6.22;4.10;;;;;;;;;;5012614;28;20026;-56
2021/10/20 04:53:21;;;;;;;11.13;3.90;;;;;;;;;;5012549;28;20038;-52
2021/10/20 04:55:47;;;;;;;9.32;3.92;;;;;;;;;;5012233;28;20030;-57
2021/10/20 04:58:13;;;;;;;8.07;3.80;;;;;;;;;;5012277;28;20486;-57
2021/10/20 05:00:39;;;;;;;7.80;3.92;;;;;;;;;;5012510;28;20022;-56
2021/10/20 05:03:05;;;;;;;6.82;3.63;;;;;;;;;;5011746;28;20026;-54
2021/10/20 05:05:31;;;;;;;4.40;2.92;;;;;;;;;;5011336;28;20034;-54
2021/10/20 05:08:01;;;;;;;5.65;3.20;;;;;;;;;;5012242;28;20045;-55
2021/10/20 05:10:27;;;;;;;5.30;3.35;;;;;;;;;;5012347;28;20441;-56
2021/10/20 05:12:56;;;;;;;5.03;3.47;;;;;;;;;;5011759;28;20033;-56
2021/10/20 05:15:22;;;;;;;5.90;3.53;;;;;;;;;;5012718;28;20048;-56
2021/10/20 05:17:48;;;;;;;5.55;3.75;;;;;;;;;;5011693;28;20109;-52
2021/10/20 05:20:15;;;;;;;6.30;3.70;;;;;;;;;;5012283;28;20475;-52
2021/10/20 05:22:41;;;;;;;5.70;3.83;;;;;;;;;;5012111;28;20014;-56
2021/10/20 05:25:08;;;;;;;5.20;3.35;;;;;;;;;;5012209;28;20021;-56
2021/10/20 05:27:34;;;;;;;4.90;3.55;;;;;;;;;;5007179;28;20834;-55
2021/10/20 05:30:01;;;;;;;8.15;3.50;;;;;;;;;;5012022;28;20092;-53
2021/10/20 05:32:27;;;;;;;9.07;3.45;;;;;;;;;;5011801;28;20145;-55
2021/10/20 05:34:53;;;;;;;5.85;3.63;;;;;;;;;;5012160;28;20117;-55
2021/10/20 05:37:20;;;;;;;5.18;3.10;;;;;;;;;;5010478;28;20109;-54
2021/10/20 05:39:48;;;;;;;7.60;3.65;;;;;;;;;;5007323;28;20572;-54
2021/10/20 05:42:14;;;;;;;5.88;3.75;;;;;;;;;;5008570;28;20018;-55
2021/10/20 05:44:40;;;;;;;5.65;3.67;;;;;;;;;;5003865;28;20030;-55
2021/10/20 05:47:06;;;;;;;6.82;3.72;;;;;;;;;;5004412;28;20466;-53
2021/10/20 05:49:32;;;;;;;5.15;3.30;;;;;;;;;;5011385;28;20098;-51
2021/10/20 05:51:58;;;;;;;5.53;3.38;;;;;;;;;;5011891;28;20034;-50
2021/10/20 05:54:24;;;;;;;6.57;3.83;;;;;;;;;;5011124;28;20076;-51
2021/10/20 05:56:50;;;;;;;6.80;3.40;;;;;;;;;;5011377;28;20022;-52
2021/10/20 05:59:22;;;;;;;7.18;3.15;;;;;;;;;;5011034;28;20021;-56
2021/10/20 06:01:49;;;;;;;4.88;3.05;;;;;;;;;;4995636;28;20371;-57
2021/10/20 06:04:16;;;;;;;6.43;3.30;;;;;;;;;;5011861;28;20594;-57
2021/10/20 06:06:42;;;;;;;7.47;3.70;;;;;;;;;;5010736;28;20141;-55
2021/10/20 06:09:08;;;;;;;3.90;2.88;;;;;;;;;;5011247;28;20470;-56
2021/10/20 06:11:34;;;;;;;5.30;3.20;;;;;;;;;;5009882;28;20029;-52
2021/10/20 06:14:00;;;;;;;6.20;3.50;;;;;;;;;;5010655;28;20030;-55
2021/10/20 06:16:26;;;;;;;6.30;3.45;;;;;;;;;;5010768;28;20038;-52
2021/10/20 06:18:52;;;;;;;7.55;3.28;;;;;;;;;;5010670;28;20505;-55
2021/10/20 06:21:18;;;;;;;5.43;3.00;;;;;;;;;;5011132;28;20697;-53
2021/10/20 06:23:44;;;;;;;6.07;3.83;;;;;;;;;;5011744;28;20026;-56
2021/10/20 06:26:10;;;;;;;5.85;3.47;;;;;;;;;;5009727;28;20026;-53
2021/10/20 06:28:36;;;;;;;5.55;2.65;;;;;;;;;;5011719;28;20061;-51
2021/10/20 06:31:02;;;;;;;6.07;3.33;;;;;;;;;;5011957;28;20433;-53
2021/10/20 06:33:28;;;;;;;7.10;3.13;;;;;;;;;;5013914;28;20061;-55
2021/10/20 06:35:54;;;;;;;6.32;3.03;;;;;;;;;;5009670;28;20112;-55
2021/10/20 06:38:21;;;;;;;4.30;2.70;;;;;;;;;;5014441;28;20026;-51
2021/10/20 06:40:48;;;;;;;4.88;2.88;;;;;;;;;;5012883;28;20369;-52
2021/10/20 06:43:14;;;;;;;5.20;2.75;;;;;;;;;;5014888;28;20506;-51
2021/10/20 06:45:40;;;;;;;5.05;2.35;;;;;;;;;;5014801;28;20072;-50
2021/10/20 06:48:06;;;;;;;3.53;2.42;;;;;;;;;;5009513;28;20030;-53
2021/10/20 06:50:32;;;;;;;4.15;2.20;;;;;;;;;;5014660;28;20036;-52
2021/10/20 06:52:58;;;;;;;5.78;2.97;;;;;;;;;;5014306;28;20084;-55
2021/10/20 06:55:24;;;;;;;3.83;2.90;;;;;;;;;;5015013;28;20030;-52
2021/10/20 06:57:50;;;;;;;5.68;2.78;;;;;;;;;;5014386;28;20082;-53
2021/10/20 07:00:16;;;;;;;4.65;2.88;;;;;;;;;;5014278;28;20030;-56
2021/10/20 07:02:43;;;;;;;5.65;2.95;;;;;;;;;;5013682;28;20030;-56
2021/10/20 07:05:09;;;;;;;4.75;2.38;;;;;;;;;;5012233;28;20033;-56
2021/10/20 07:07:35;;;;;;;4.10;2.42;;;;;;;;;;5010082;28;20034;-56
2021/10/20 07:10:01;;;;;;;3.75;2.30;;;;;;;;;;5010414;28;20034;-53
2021/10/20 07:12:30;;;;;;;3.70;2.70;;;;;;;;;;5013514;28;20028;-54
2021/10/20 07:14:56;;;;;;;3.60;2.17;;;;;;;;;;5011292;28;20041;-53
2021/10/20 07:17:22;;;;;;;4.05;2.60;;;;;;;;;;5013518;28;20548;-53
2021/10/20 07:19:48;;;;;;;4.20;2.35;;;;;;;;;;5013970;28;20025;-55
2021/10/20 07:22:14;;;;;;;4.85;2.88;;;;;;;;;;5013489;28;20030;-51
2021/10/20 07:24:40;;;;;;;5.05;2.70;;;;;;;;;;5013930;28;20022;-52
2021/10/20 07:27:06;;;;;;;3.17;2.40;;;;;;;;;;5013751;28;20041;-52
2021/10/20 07:29:33;;;;;;;4.07;2.33;;;;;;;;;;5013155;28;20482;-54
2021/10/20 07:31:59;;;;;;;3.45;2.38;;;;;;;;;;5013256;28;20191;-54
2021/10/20 07:34:25;;;;;;;4.05;2.40;;;;;;;;;;5012501;28;20041;-51
2021/10/20 07:36:51;;;;;;;3.55;2.10;;;;;;;;;;5012496;28;20021;-52
2021/10/20 07:39:17;;;;;;;3.28;2.03;;;;;;;;;;5011040;28;20083;-54
2021/10/20 07:41:44;;;;;;;6.60;1.83;;;;;;;;;;5010892;28;20018;-56
2021/10/20 07:44:10;;;;;;;3.53;2.13;;;;;;;;;;5011644;28;20025;-54
2021/10/20 07:46:36;;;;;;;4.85;2.25;;;;;;;;;;5009782;28;20034;-51
2021/10/20 07:49:04;;;;;;;2.97;2.20;;;;;;;;;;5013735;28;20030;-53
2021/10/20 07:51:30;;;;;;;2.58;1.92;;;;;;;;;;5013569;28;20034;-50
2021/10/20 07:53:56;;;;;;;3.80;2.63;;;;;;;;;;5011451;28;20124;-53
2021/10/20 07:56:22;;;;;;;2.17;1.60;;;;;;;;;;5013427;28;20030;-50
2021/10/20 07:58:48;;;;;;;2.70;1.90;;;;;;;;;;5012884;28;20030;-52
2021/10/20 08:01:15;;;;;;;2.92;1.90;;;;;;;;;;5012721;28;20033;-53
2021/10/20 08:03:41;;;;;;;6.53;1.80;;;;;;;;;;5012728;28;20121;-56
2021/10/20 08:06:07;;;;;;;4.05;1.85;;;;;;;;;;5011522;28;20014;-56
2021/10/20 08:08:33;;;;;;;3.92;1.88;;;;;;;;;;5012257;28;20026;-56
2021/10/20 08:10:59;;;;;;;2.45;1.38;;;;;;;;;;5012507;28;20096;-55
2021/10/20 08:13:25;;;;;;;3.03;1.73;;;;;;;;;;5012060;28;20113;-51
2021/10/20 08:15:51;;;;;;;3.08;1.90;;;;;;;;;;5012576;28;20022;-55
2021/10/20 08:18:17;;;;;;;3.22;1.67;;;;;;;;;;5012868;28;20053;-56
2021/10/20 08:20:43;;;;;;;4.53;1.98;;;;;;;;;;5010984;28;20021;-55
2021/10/20 08:23:09;;;;;;;2.80;2.08;;;;;;;;;;5011612;28;20026;-55
2021/10/20 08:25:36;;;;;;;2.35;1.33;;;;;;;;;;5012982;28;20096;-55
2021/10/20 08:28:02;;;;;;;3.15;1.70;;;;;;;;;;5008795;28;20125;-56
2021/10/20 08:30:29;;;;;;;2.47;1.48;;;;;;;;;;5012861;28;20517;-52
2021/10/20 08:32:57;;;;;;;5.13;2.00;;;;;;;;;;5007445;28;20049;-52
2021/10/20 08:35:23;;;;;;;2.83;1.60;;;;;;;;;;5013117;28;20102;-49
2021/10/20 08:38:03;;;;;;;3.70;1.65;;;;;;;;;;5010417;28;20037;-51
2021/10/20 08:40:32;;;;;;;2.28;1.42;;;;;;;;;;5012435;28;20069;-52
2021/10/20 08:42:58;;;;;;;3.50;1.58;;;;;;;;;;5010721;28;20081;-50
2021/10/20 08:45:25;;;;;;;3.28;1.75;;;;;;;;;;5011764;28;20116;-54
2021/10/20 08:47:52;;;;;;;3.28;1.80;;;;;;;;;;5012425;28;20034;-50
2021/10/20 08:50:25;;;;;;;2.72;1.30;;;;;;;;;;5013116;28;20037;-51
2021/10/20 08:52:51;;;;;;;;;;;;;;;;;;5009348;28;20097;-51
2021/10/20 08:55:18;;;;;;;3.95;1.88;;;;;;;;;;5010551;28;20004;-56
2021/10/20 08:57:45;;;;;;;2.72;1.40;;;;;;;;;;5011671;28;20034;-55
2021/10/20 09:00:12;;;;;;;2.30;1.30;;;;;;;;;;5012046;28;20061;-56
2021/10/20 09:02:40;;;;;;;3.17;1.40;;;;;;;;;;5010852;28;20030;-54
2021/10/20 09:05:07;;;;;;;3.35;1.75;;;;;;;;;;5012376;28;20037;-55
2021/10/20 09:07:33;;;;;;;2.55;1.48;;;;;;;;;;5011136;28;20033;-54
2021/10/20 09:09:59;;;;;;;3.10;1.85;;;;;;;;;;5009799;28;20532;-52
2021/10/20 09:12:26;;;;;;;2.80;1.60;;;;;;;;;;5009597;28;20035;-52
2021/10/20 09:14:56;;;;;;;2.33;1.60;;;;;;;;;;5012145;28;20426;-56
2021/10/20 09:17:22;;;;;;;2.75;1.50;;;;;;;;;;5011277;28;20061;-55
2021/10/20 09:19:48;;;;;;;3.38;1.48;;;;;;;;;;5012386;28;20041;-56
2021/10/20 09:22:14;;;;;;;2.83;1.70;;;;;;;;;;5011822;28;20053;-56
2021/10/20 09:24:41;;;;;;;3.47;1.65;;;;;;;;;;5010636;28;20116;-56
2021/10/20 09:27:21;;;;;;;2.30;1.52;;;;;;;;;;5011835;28;20116;-54
2021/10/20 09:29:47;;;;;;;4.78;1.70;;;;;;;;;;5009635;28;20037;-50
2021/10/20 09:32:13;;;;;;;3.10;1.38;;;;;;;;;;5010449;28;20049;-56
2021/10/20 09:34:39;;;;;;;4.47;1.92;;;;;;;;;;5008814;28;20026;-56
2021/10/20 09:37:06;;;;;;;2.33;1.40;;;;;;;;;;5008864;28;20031;-52
2021/10/20 09:39:32;;;;;;;3.03;1.77;;;;;;;;;;5005680;28;20137;-55
2021/10/20 09:42:09;;;;;;;3.00;1.52;;;;;;;;;;5009775;28;20072;-54
2021/10/20 09:44:48;;;;;;;1.92;1.52;;;;;;;;;;4999769;28;20038;-56
2021/10/20 09:47:15;;;;;;;6.93;1.80;;;;;;;;;;5011577;28;20029;-54
2021/10/20 09:49:48;;;;;;;3.22;1.77;;;;;;;;;;5010886;28;20036;-53
2021/10/20 09:52:14;;;;;;;3.75;1.60;;;;;;;;;;5012423;28;20067;-52
2021/10/20 09:54:41;;;;;;;3.13;1.65;;;;;;;;;;5012037;28;20131;-54
2021/10/20 09:57:07;;;;;;;3.67;1.35;;;;;;;;;;5010808;28;20108;-51
2021/10/20 09:59:33;;;;;;;2.95;1.60;;;;;;;;;;5011431;28;20141;-54
2021/10/20 10:01:59;;;;;;;4.88;1.80;;;;;;;;;;5011748;28;20102;-55
2021/10/20 10:04:25;;;;;;;2.95;1.77;;;;;;;;;;5011838;28;20026;-52
2021/10/20 10:06:51;;;;;;;5.00;2.03;;;;;;;;;;5012650;28;20104;-51
2021/10/20 10:09:18;;;;;;;6.18;1.67;;;;;;;;;;5015693;28;20021;-52
2021/10/20 10:11:54;;;;;;;3.78;2.42;;;;;;;;;;5015314;28;20026;-54
2021/10/20 10:14:24;;;;;;;4.43;2.20;;;;;;;;;;5007319;28;20528;-52
2021/10/20 10:16:58;;;;;;;5.38;2.17;;;;;;;;;;5015762;28;20108;-51
2021/10/20 10:19:24;;;;;;;3.55;1.88;;;;;;;;;;5015850;28;20030;-52
2021/10/20 10:21:52;;;;;;;4.10;1.98;;;;;;;;;;5015490;28;20087;-54
2021/10/20 10:24:18;;;;;;;2.65;1.73;;;;;;;;;;5014652;28;20026;-52
2021/10/20 10:27:03;;;;;;;3.58;2.13;;;;;;;;;;5014130;28;20478;-53
2021/10/20 10:29:30;;;;;;;12.60;2.22;;;;;;;;;;5013987;28;20076;-52
2021/10/20 10:31:59;;;;;;;3.67;1.75;;;;;;;;;;5015017;28;20061;-54
2021/10/20 10:34:26;;;;;;;5.40;2.50;;;;;;;;;;5015359;28;20104;-53
2021/10/20 10:36:53;;;;;;;3.67;2.10;;;;;;;;;;5004410;28;20026;-51
2021/10/20 10:39:20;;;;;;;2.78;1.90;;;;;;;;;;5012711;28;20061;-51
2021/10/20 10:41:48;;;;;;;3.35;1.95;;;;;;;;;;5015410;28;20033;-50
2021/10/20 10:44:16;;;;;;;3.38;2.13;;;;;;;;;;5014941;28;20033;-55
2021/10/20 10:46:47;;;;;;;3.42;2.10;;;;;;;;;;5008798;28;20087;-52
2021/10/20 10:49:28;;;;;;;5.20;2.35;;;;;;;;;;5015176;28;20382;-50
2021/10/20 10:52:14;;;;;;;3.78;2.08;;;;;;;;;;5010555;28;20033;-50
2021/10/20 10:54:51;;;;;;;7.20;2.30;;;;;;;;;;5012430;28;20038;-50
2021/10/20 10:57:17;;;;;;;4.78;2.38;;;;;;;;;;5014789;28;20456;-51
2021/10/20 11:00:02;;;;;;;5.40;2.13;;;;;;;;;;5011809;28;20104;-50
2021/10/20 11:02:48;;;;;;;3.80;2.30;;;;;;;;;;5012706;28;20387;-54
2021/10/20 11:05:14;;;;;;;3.67;2.10;;;;;;;;;;5008586;28;20363;-51
2021/10/20 11:07:44;;;;;;;2.45;1.83;;;;;;;;;;5010607;28;20022;-51
2021/10/20 11:10:11;;;;;;;4.97;2.35;;;;;;;;;;5012780;28;20026;-50
2021/10/20 11:12:38;;;;;;;4.63;2.75;;;;;;;;;;5013228;28;20045;-51
2021/10/20 11:15:05;;;;;;;5.72;2.50;;;;;;;;;;5020183;28;20068;-52
2021/10/20 11:17:32;;;;;;;4.50;2.15;;;;;;;;;;5013415;28;20359;-50
2021/10/20 11:19:58;;;;;;;6.85;2.22;;;;;;;;;;5005847;28;20026;-51
2021/10/20 11:22:25;;;;;;;4.88;2.78;;;;;;;;;;5013937;28;20037;-52
2021/10/20 11:24:54;;;;;;;4.95;1.90;;;;;;;;;;5010760;28;20055;-56
2021/10/20 11:27:22;;;;;;;3.65;2.50;;;;;;;;;;5006583;28;20022;-55
2021/10/20 11:29:49;;;;;;;6.72;2.53;;;;;;;;;;5012653;28;20140;-51
2021/10/20 11:32:16;;;;;;;4.72;2.20;;;;;;;;;;5013045;28;20533;-52
2021/10/20 11:34:46;;;;;;;3.75;2.55;;;;;;;;;;5013109;28;20041;-52
2021/10/20 11:37:13;;;;;;;3.35;2.05;;;;;;;;;;5010965;28;20036;-54
2021/10/20 11:39:40;;;;;;;6.28;2.55;;;;;;;;;;5013650;28;20355;-55
2021/10/20 11:42:09;;;;;;;3.70;2.17;;;;;;;;;;5012766;28;20112;-55
2021/10/20 11:44:36;;;;;;;4.05;2.13;;;;;;;;;;5013480;28;20075;-52
2021/10/20 11:47:04;;;;;;;3.78;2.30;;;;;;;;;;5011820;28;20030;-55
2021/10/20 11:49:30;;;;;;;9.43;2.22;;;;;;;;;;5008825;28;20347;-52
2021/10/20 11:51:56;;;;;;;3.15;2.00;;;;;;;;;;5012089;28;20042;-54
2021/10/20 11:54:25;;;;;;;9.75;2.33;;;;;;;;;;5013253;28;20112;-57
2021/10/20 11:56:54;;;;;;;3.17;2.03;;;;;;;;;;5013794;28;20529;-55
2021/10/20 11:59:22;;;;;;;14.60;2.67;;;;;;;;;;5013497;28;20037;-53
2021/10/20 12:01:48;;;;;;;2.75;1.85;;;;;;;;;;5009886;28;20498;-50
2021/10/20 12:04:15;;;;;;;2.55;1.60;;;;;;;;;;5013263;28;20021;-50
2021/10/20 12:06:41;;;;;;;5.38;1.95;;;;;;;;;;5013604;28;20060;-57
2021/10/20 12:09:09;;;;;;;3.30;1.83;;;;;;;;;;5013123;28;20113;-53
2021/10/20 12:11:35;;;;;;;2.97;1.70;;;;;;;;;;5012640;28;20080;-55
2021/10/20 12:14:08;;;;;;;3.75;2.00;;;;;;;;;;5012699;28;20034;-55
2021/10/20 12:16:35;;;;;;;3.40;1.77;;;;;;;;;;5009366;28;20045;-53
2021/10/20 12:19:02;;;;;;;3.10;1.70;;;;;;;;;;5009612;28;20041;-51
2021/10/20 12:21:29;;;;;;;3.08;1.70;;;;;;;;;;5013466;28;20087;-53
2021/10/20 12:24:02;;;;;;;3.35;1.42;;;;;;;;;;5002647;28;20433;-55
2021/10/20 12:26:28;;;;;;;2.10;1.30;;;;;;;;;;5011188;28;20104;-50
2021/10/20 12:28:55;;;;;;;2.88;1.50;;;;;;;;;;5010660;28;20108;-51
2021/10/20 12:31:22;;;;;;;3.00;1.38;;;;;;;;;;5012626;28;20136;-50
2021/10/20 12:33:51;;;;;;;4.88;1.80;;;;;;;;;;5013168;28;20034;-50
2021/10/20 12:36:18;;;;;;;2.30;1.20;;;;;;;;;;5010775;28;20034;-50
2021/10/20 12:38:45;;;;;;;3.60;1.13;;;;;;;;;;5012322;28;20041;-51
2021/10/20 12:41:12;;;;;;;4.47;1.35;;;;;;;;;;5012373;28;20045;-52
2021/10/20 12:43:38;;;;;;;3.92;1.13;;;;;;;;;;5012229;28;20121;-52
2021/10/20 12:46:05;;;;;;;3.05;1.05;;;;;;;;;;5011569;28;20113;-52
2021/10/20 12:48:33;;;;;;;8.05;2.10;;;;;;;;;;5004642;28;20127;-54
2021/10/20 12:51:08;;;;;;;2.35;1.40;;;;;;;;;;5010195;28;20045;-55
2021/10/20 12:53:40;;;;;;;2.95;1.70;;;;;;;;;;5012742;28;20387;-52
2021/10/20 12:56:06;;;;;;;5.28;1.45;;;;;;;;;;5007709;28;20033;-54
2021/10/20 12:58:32;;;;;;;2.45;1.40;;;;;;;;;;4997663;28;20069;-55
2021/10/20 13:00:58;;;;;;;1.75;1.05;;;;;;;;;;5007386;28;20029;-56
2021/10/20 13:03:24;;;;;;;2.85;1.63;;;;;;;;;;5009436;28;20437;-56
2021/10/20 13:05:50;;;;;;;3.17;1.85;;;;;;;;;;5014520;28;20378;-51
2021/10/20 13:08:16;;;;;;;1.77;1.48;;;;;;;;;;5004858;28;20025;-53
2021/10/20 13:10:42;;;;;;;2.45;1.40;;;;;;;;;;5005761;28;20074;-52
2021/10/20 13:13:08;;;;;;;3.85;1.50;;;;;;;;;;5015125;28;20420;-54
2021/10/20 13:15:34;;;;;;;2.65;1.63;;;;;;;;;;5002459;28;20030;-50
2021/10/20 13:18:00;;;;;;;4.53;1.70;;;;;;;;;;5003082;28;20022;-50
2021/10/20 13:20:27;;;;;;;2.55;1.80;;;;;;;;;;5004010;28;20474;-50
2021/10/20 13:22:56;;;;;;;2.67;1.35;;;;;;;;;;5004432;28;20014;-53
2021/10/20 13:25:22;;;;;;;5.80;1.75;;;;;;;;;;5002782;28;20053;-55
2021/10/20 13:27:48;;;;;;;3.47;1.58;;;;;;;;;;5010806;28;20026;-54
2021/10/20 13:30:16;;;;;;;2.95;1.42;;;;;;;;;;5009730;28;20540;-51
2021/10/20 13:32:43;;;;;;;4.03;1.50;;;;;;;;;;5006579;28;20915;-56
2021/10/20 13:35:09;;;;;;;3.75;1.65;;;;;;;;;;5008723;28;20025;-50
2021/10/20 13:37:36;;;;;;;2.13;1.42;;;;;;;;;;5010982;28;20202;-54
2021/10/20 13:40:03;;;;;;;2.22;1.38;;;;;;;;;;5014825;28;20116;-50
2021/10/20 13:42:29;;;;;;;4.55;1.52;;;;;;;;;;5018888;28;20373;-51
2021/10/20 13:45:02;;;;;;;2.45;1.50;;;;;;;;;;5015493;28;20113;-51
2021/10/20 13:47:28;;;;;;;2.05;1.25;;;;;;;;;;5015568;28;20041;-54
2021/10/20 13:49:54;;;;;;;3.70;1.55;;;;;;;;;;5007742;28;20512;-51
2021/10/20 13:52:20;;;;;;;1.50;1.20;;;;;;;;;;5017468;28;20061;-51
2021/10/20 13:54:46;;;;;;;3.20;1.50;;;;;;;;;;5018034;28;20041;-50
2021/10/20 13:57:12;;;;;;;3.08;1.73;;;;;;;;;;5010774;28;20508;-50
2021/10/20 13:59:38;;;;;;;3.65;1.70;;;;;;;;;;5009706;28;20073;-57
2021/10/20 14:02:04;;;;;;;1.95;1.38;;;;;;;;;;5013718;28;20035;-55
2021/10/20 14:04:30;;;;;;;3.10;1.50;;;;;;;;;;5011916;28;20029;-57
2021/10/20 14:06:56;;;;;;;2.30;1.63;;;;;;;;;;5015925;28;20046;-58
2021/10/20 14:09:22;;;;;;;2.50;1.20;;;;;;;;;;5013394;28;20033;-56
2021/10/20 14:11:49;;;;;;;3.20;1.40;;;;;;;;;;5014034;28;20030;-59
2021/10/20 14:14:16;;;;;;;2.67;1.50;;;;;;;;;;5020312;28;20029;-55
2021/10/20 14:16:42;;;;;;;2.70;1.63;;;;;;;;;;5019873;28;20071;-57
2021/10/20 14:19:08;;;;;;;3.30;1.75;;;;;;;;;;5013995;28;20034;-56
2021/10/20 14:21:34;;;;;;;2.22;1.27;;;;;;;;;;5012461;28;20029;-57
2021/10/20 14:24:01;;;;;;;2.22;1.38;;;;;;;;;;5017426;28;20105;-54
2021/10/20 14:26:27;;;;;;;3.53;1.77;;;;;;;;;;5013788;28;20018;-54
2021/10/20 14:28:53;;;;;;;2.63;1.52;;;;;;;;;;5015047;28;20036;-57
2021/10/20 14:31:19;;;;;;;3.65;1.55;;;;;;;;;;5016402;28;20030;-52
2021/10/20 14:33:45;;;;;;;2.47;1.45;;;;;;;;;;5013714;28;21717;-56
2021/10/20 14:36:11;;;;;;;2.25;1.70;;;;;;;;;;5013543;28;20048;-57
2021/10/20 14:38:37;;;;;;;4.20;1.52;;;;;;;;;;5026005;28;20398;-55
2021/10/20 14:41:03;;;;;;;3.13;1.70;;;;;;;;;;5013579;28;20026;-57